createdAt,value
2022-10-21T00:01:51.854Z,25.58
2022-10-21T00:04:18.491Z,26.45
2022-10-21T00:06:46.572Z,24.73
2022-10-21T00:09:13.308Z,26.25
2022-10-21T00:11:39.983Z,23.42
2022-10-21T00:14:06.673Z,26.52
2022-10-21T00:16:33.348Z,26.95
2022-10-21T00:19:00.029Z,25.80
2022-10-21T00:21:26.892Z,25.02
2022-10-21T00:23:53.524Z,31.13
2022-10-21T00:26:21.833Z,25.67
2022-10-21T00:28:48.512Z,26.98
2022-10-21T00:31:16.118Z,25.33
2022-10-21T00:33:43.095Z,27.95
2022-10-21T00:36:15.286Z,26.73
2022-10-21T00:38:44.958Z,25.70
2022-10-21T00:41:12.444Z,27.77
2022-10-21T00:43:59.633Z,24.52
2022-10-21T00:46:30.698Z,25.15
2022-10-21T00:48:58.662Z,24.25
2022-10-21T00:51:25.583Z,23.00
2022-10-21T00:53:52.565Z,25.33
2022-10-21T00:56:26.644Z,25.75
2022-10-21T00:58:57.624Z,23.00
2022-10-21T01:01:24.826Z,22.85
2022-10-21T01:03:51.550Z,25.52
2022-10-21T01:06:21.958Z,25.35
2022-10-21T01:08:49.377Z,24.77
2022-10-21T01:11:18.592Z,20.60
2022-10-21T01:14:13.375Z,19.75
2022-10-21T01:17:15.609Z,20.17
2022-10-21T01:20:07.252Z,22.27
2022-10-21T01:22:52.113Z,22.67
2022-10-21T01:25:36.920Z,22.25
2022-10-21T01:28:26.376Z,23.23
2022-10-21T01:31:28.319Z,21.83
2022-10-21T01:34:06.754Z,24.88
2022-10-21T01:36:55.145Z,23.52
2022-10-21T01:39:38.908Z,23.33
2022-10-21T01:42:32.678Z,19.27
2022-10-21T01:45:06.606Z,21.60
2022-10-21T01:47:37.049Z,28.75
2022-10-21T01:50:10.835Z,20.70
2022-10-21T01:52:41.489Z,21.77
2022-10-21T01:55:14.442Z,20.65
2022-10-21T01:57:46.585Z,19.95
2022-10-21T02:00:13.967Z,19.70
2022-10-21T02:02:45.715Z,20.92
2022-10-21T02:05:30.083Z,19.58
2022-10-21T02:07:56.879Z,18.98
2022-10-21T02:10:27.758Z,17.95
2022-10-21T02:12:58.613Z,17.73
2022-10-21T02:15:28.967Z,17.40
2022-10-21T02:18:02.807Z,22.67
2022-10-21T02:20:34.464Z,20.42
2022-10-21T02:23:02.335Z,18.67
2022-10-21T02:25:32.767Z,18.17
2022-10-21T02:27:59.657Z,19.88
2022-10-21T02:30:29.792Z,18.20
2022-10-21T02:33:04.255Z,17.98
2022-10-21T02:35:46.300Z,16.55
2022-10-21T02:38:28.181Z,18.83
2022-10-21T02:41:00.996Z,20.80
2022-10-21T02:43:39.706Z,19.27
2022-10-21T02:46:08.947Z,17.75
2022-10-21T02:48:37.579Z,17.70
2022-10-21T02:51:06.426Z,18.10
2022-10-21T02:53:34.403Z,16.05
2022-10-21T02:56:01.595Z,13.77
2022-10-21T02:58:28.688Z,16.85
2022-10-21T03:00:55.443Z,20.60
2022-10-21T03:03:22.404Z,18.90
2022-10-21T03:05:49.059Z,20.02
2022-10-21T03:08:16.292Z,19.48
2022-10-21T03:10:43.067Z,19.13
2022-10-21T03:13:10.064Z,19.88
2022-10-21T03:15:36.737Z,21.65
2022-10-21T03:18:03.421Z,18.42
2022-10-21T03:20:30.090Z,17.77
2022-10-21T03:22:56.752Z,19.75
2022-10-21T03:25:23.357Z,20.63
2022-10-21T03:27:50.936Z,22.85
2022-10-21T03:30:17.921Z,20.88
2022-10-21T03:32:44.601Z,22.88
2022-10-21T03:35:11.375Z,19.95
2022-10-21T03:37:38.063Z,20.63
2022-10-21T03:40:08.616Z,21.02
2022-10-21T03:42:38.424Z,21.95
2022-10-21T03:45:05.559Z,23.85
2022-10-21T03:47:32.209Z,21.52
2022-10-21T03:49:58.889Z,23.70
2022-10-21T03:52:25.527Z,22.33
2022-10-21T03:54:52.280Z,20.40
2022-10-21T03:57:18.971Z,22.17
2022-10-21T03:59:45.620Z,21.17
2022-10-21T04:02:12.420Z,21.13
2022-10-21T04:04:39.096Z,18.23
2022-10-21T04:07:05.757Z,19.83
2022-10-21T04:09:32.342Z,18.38
2022-10-21T04:11:59.010Z,18.17
2022-10-21T04:14:25.669Z,18.58
2022-10-21T04:17:02.070Z,17.17
2022-10-21T04:19:29.119Z,21.15
2022-10-21T04:21:55.799Z,18.17
2022-10-21T04:24:22.476Z,21.25
2022-10-21T04:26:49.133Z,19.95
2022-10-21T04:29:15.800Z,21.58
2022-10-21T04:31:42.496Z,19.13
2022-10-21T04:34:09.184Z,26.90
2022-10-21T04:36:35.871Z,21.55
2022-10-21T04:39:02.757Z,19.42
2022-10-21T04:41:29.406Z,20.13
2022-10-21T04:43:56.003Z,19.73
2022-10-21T04:46:22.683Z,17.75
2022-10-21T04:48:49.404Z,15.75
2022-10-21T04:51:16.072Z,18.83
2022-10-21T04:53:42.760Z,18.00
2022-10-21T04:56:09.547Z,18.88
2022-10-21T04:58:36.398Z,20.45
2022-10-21T05:01:03.470Z,19.08
2022-10-21T05:03:30.700Z,19.63
2022-10-21T05:05:57.425Z,19.40
2022-10-21T05:08:24.116Z,22.10
2022-10-21T05:10:57.706Z,17.63
2022-10-21T05:13:24.383Z,18.38
2022-10-21T05:15:51.121Z,17.00
2022-10-21T05:18:17.779Z,18.77
2022-10-21T05:20:50.800Z,19.45
2022-10-21T05:23:17.634Z,19.20
2022-10-21T05:25:45.183Z,17.20
2022-10-21T05:28:11.942Z,17.33
2022-10-21T05:30:39.076Z,18.13
2022-10-21T05:33:06.547Z,25.25
2022-10-21T05:35:33.229Z,17.20
2022-10-21T05:37:59.956Z,21.02
2022-10-21T05:40:26.669Z,20.27
2022-10-21T05:42:53.429Z,18.92
2022-10-21T05:45:20.206Z,17.20
2022-10-21T05:47:46.983Z,18.95
2022-10-21T05:50:14.175Z,21.92
2022-10-21T05:52:41.480Z,20.30
2022-10-21T05:55:09.472Z,20.23
2022-10-21T05:57:38.400Z,19.88
2022-10-21T06:00:06.568Z,17.35
2022-10-21T06:02:33.721Z,18.13
2022-10-21T06:05:00.301Z,18.42
2022-10-21T06:07:26.905Z,18.73
2022-10-21T06:09:54.865Z,17.45
2022-10-21T06:12:22.059Z,16.88
2022-10-21T06:14:48.704Z,16.80
2022-10-21T06:17:15.387Z,18.58
2022-10-21T06:19:43.219Z,16.73
2022-10-21T06:22:11.447Z,16.05
2022-10-21T06:24:38.054Z,17.17
2022-10-21T06:27:05.378Z,14.95
2022-10-21T06:29:32.112Z,19.27
2022-10-21T06:31:58.711Z,20.33
2022-10-21T06:34:25.380Z,16.35
2022-10-21T06:36:51.953Z,19.25
2022-10-21T06:39:18.618Z,16.75
2022-10-21T06:41:45.262Z,17.77
2022-10-21T06:44:11.895Z,19.50
2022-10-21T06:46:38.528Z,17.67
2022-10-21T06:49:05.090Z,18.38
2022-10-21T06:51:31.652Z,16.95
2022-10-21T06:53:59.486Z,16.73
2022-10-21T06:56:27.657Z,17.90
2022-10-21T06:58:57.190Z,17.05
2022-10-21T07:01:34.719Z,16.45
2022-10-21T07:04:08.733Z,16.83
2022-10-21T07:06:35.792Z,18.48
2022-10-21T07:09:04.945Z,18.95
2022-10-21T07:11:31.859Z,18.58
2022-10-21T07:14:00.702Z,18.25
2022-10-21T07:16:30.000Z,16.55
2022-10-21T07:18:57.249Z,19.95
2022-10-21T07:21:26.216Z,18.02
2022-10-21T07:23:56.483Z,18.38
2022-10-21T07:26:28.430Z,16.42
2022-10-21T07:28:58.024Z,17.45
2022-10-21T07:31:24.884Z,18.08
2022-10-21T07:33:52.328Z,16.15
2022-10-21T07:36:30.484Z,15.32
2022-10-21T07:39:00.093Z,21.33
2022-10-21T07:41:39.166Z,15.00
2022-10-21T07:44:06.562Z,20.70
2022-10-21T07:46:33.672Z,16.15
2022-10-21T07:49:00.677Z,14.10
2022-10-21T07:51:31.385Z,17.00
2022-10-21T07:54:00.290Z,19.88
2022-10-21T07:56:33.938Z,16.10
2022-10-21T07:59:01.874Z,19.05
2022-10-21T08:01:29.921Z,15.30
2022-10-21T08:03:57.586Z,13.73
2022-10-21T08:06:27.025Z,15.60
2022-10-21T08:08:54.030Z,17.17
2022-10-21T08:11:26.149Z,16.90
2022-10-21T08:13:53.520Z,17.50
2022-10-21T08:16:20.731Z,14.73
2022-10-21T08:18:48.771Z,15.65
2022-10-21T08:21:16.024Z,17.08
2022-10-21T08:23:43.113Z,17.35
2022-10-21T08:26:15.709Z,16.15
2022-10-21T08:28:43.037Z,16.90
2022-10-21T08:31:15.675Z,18.20
2022-10-21T08:33:45.550Z,13.82
2022-10-21T08:36:15.619Z,17.38
2022-10-21T08:38:42.891Z,16.42
2022-10-21T08:41:31.049Z,14.27
2022-10-21T08:44:09.782Z,16.35
2022-10-21T08:46:45.171Z,17.30
2022-10-21T08:49:37.114Z,17.67
2022-10-21T08:52:12.953Z,18.33
2022-10-21T08:55:06.607Z,17.45
2022-10-21T08:57:35.188Z,16.17
2022-10-21T09:00:06.479Z,15.75
2022-10-21T09:02:39.032Z,15.77
2022-10-21T09:05:39.896Z,17.80
2022-10-21T09:08:15.886Z,18.20
2022-10-21T09:11:07.530Z,15.10
2022-10-21T09:13:56.336Z,17.75
2022-10-21T09:16:33.623Z,18.35
2022-10-21T09:19:16.291Z,17.20
2022-10-21T09:21:49.062Z,19.02
2022-10-21T09:24:36.571Z,16.33
2022-10-21T09:27:05.809Z,16.92
2022-10-21T09:29:37.551Z,18.85
2022-10-21T09:32:26.148Z,17.60
2022-10-21T09:34:58.196Z,16.42
2022-10-21T09:37:40.470Z,15.80
2022-10-21T09:40:23.416Z,18.63
2022-10-21T09:42:55.708Z,17.08
2022-10-21T09:45:32.385Z,14.85
2022-10-21T09:48:02.025Z,17.95
2022-10-21T09:50:29.887Z,17.08
2022-10-21T09:53:16.187Z,15.68
2022-10-21T09:55:45.448Z,15.80
2022-10-21T09:58:44.345Z,17.17
2022-10-21T10:01:18.254Z,16.30
2022-10-21T10:03:59.927Z,13.55
2022-10-21T10:06:38.308Z,15.23
2022-10-21T10:09:32.654Z,16.75
2022-10-21T10:12:11.987Z,18.25
2022-10-21T10:14:45.207Z,16.20
2022-10-21T10:17:23.990Z,16.33
2022-10-21T10:20:05.747Z,15.25
2022-10-21T10:22:38.456Z,14.77
2022-10-21T10:25:18.936Z,15.52
2022-10-21T10:27:58.057Z,17.35
2022-10-21T10:30:32.259Z,13.27
2022-10-21T10:33:14.185Z,15.50
2022-10-21T10:35:51.457Z,16.23
2022-10-21T10:38:41.872Z,15.60
2022-10-21T10:41:12.015Z,13.15
2022-10-21T10:43:55.651Z,15.52
2022-10-21T10:46:27.128Z,17.25
2022-10-21T10:48:55.303Z,15.05
2022-10-21T10:51:29.227Z,16.63
2022-10-21T10:54:05.219Z,14.05
2022-10-21T10:56:50.884Z,16.33
2022-10-21T10:59:23.034Z,11.65
2022-10-21T11:04:39.026Z,15.63
2022-10-21T11:07:19.997Z,14.73
2022-10-21T11:09:49.305Z,18.45
2022-10-21T11:12:23.980Z,17.52
2022-10-21T11:14:58.723Z,18.52
2022-10-21T11:17:37.423Z,18.23
2022-10-21T11:20:19.497Z,15.00
2022-10-21T11:23:02.267Z,19.75
2022-10-21T11:25:45.085Z,16.67
2022-10-21T11:28:30.307Z,16.98
2022-10-21T11:31:21.010Z,15.25
2022-10-21T11:33:57.068Z,18.45
2022-10-21T11:36:38.535Z,17.35
2022-10-21T11:39:27.800Z,18.85
2022-10-21T11:42:05.407Z,17.38
2022-10-21T11:44:41.155Z,17.08
2022-10-21T11:47:44.975Z,16.70
2022-10-21T11:50:33.479Z,18.13
2022-10-21T11:54:08.151Z,15.75
2022-10-21T11:56:59.748Z,16.10
2022-10-21T12:00:05.492Z,15.43
2022-10-21T12:03:01.556Z,17.92
2022-10-21T12:05:39.667Z,18.25
2022-10-21T12:08:09.549Z,18.38
2022-10-21T12:10:57.404Z,18.65
2022-10-21T12:13:36.831Z,17.30
2022-10-21T12:16:10.796Z,16.45
2022-10-21T12:18:59.406Z,16.42
2022-10-21T12:21:39.822Z,18.42
2022-10-21T12:24:26.016Z,16.25
2022-10-21T12:27:06.491Z,22.08
2022-10-21T12:29:58.463Z,16.17
2022-10-21T12:33:11.286Z,18.88
2022-10-21T12:35:50.466Z,19.88
2022-10-21T12:38:24.991Z,17.65
2022-10-21T12:41:20.368Z,18.17
2022-10-21T12:44:03.812Z,18.98
2022-10-21T12:46:44.561Z,17.13
2022-10-21T12:49:28.698Z,18.20
2022-10-21T12:52:22.454Z,15.43
2022-10-21T12:55:03.094Z,15.02
2022-10-21T12:57:33.808Z,16.98
2022-10-21T13:00:22.087Z,17.35
2022-10-21T13:03:10.115Z,17.70
2022-10-21T13:05:36.649Z,15.38
2022-10-21T13:08:29.508Z,20.05
2022-10-21T13:11:05.364Z,15.77
2022-10-21T13:13:35.678Z,16.42
2022-10-21T13:16:22.215Z,18.40
2022-10-21T13:19:09.026Z,17.70
2022-10-21T13:21:38.076Z,17.65
2022-10-21T13:24:44.325Z,17.02
2022-10-21T13:27:49.121Z,18.75
2022-10-21T13:30:30.793Z,15.68
2022-10-21T13:33:06.607Z,15.25
2022-10-21T13:35:44.693Z,17.95
2022-10-21T13:38:19.365Z,14.73
2022-10-21T13:41:00.394Z,16.85
2022-10-21T13:43:32.835Z,15.00
2022-10-21T13:46:04.570Z,17.75
2022-10-21T13:48:31.662Z,13.70
2022-10-21T13:51:11.969Z,19.60
2022-10-21T13:53:43.474Z,14.10
2022-10-21T13:56:32.260Z,16.67
2022-10-21T13:58:59.442Z,15.05
2022-10-21T14:01:29.651Z,13.90
2022-10-21T14:04:12.597Z,14.93
2022-10-21T14:06:44.945Z,12.18
2022-10-21T14:09:26.022Z,13.30
2022-10-21T14:11:59.914Z,14.02
2022-10-21T14:14:28.697Z,14.48
2022-10-21T14:16:59.670Z,14.48
2022-10-21T14:19:29.105Z,13.43
2022-10-21T14:21:58.457Z,14.20
2022-10-21T14:24:27.784Z,14.95
2022-10-21T14:26:56.729Z,37.72
2022-10-21T14:29:29.510Z,21.60
2022-10-21T14:31:57.567Z,43.05
2022-10-21T14:34:26.208Z,42.83
2022-10-21T14:37:11.854Z,26.67
2022-10-21T14:39:43.409Z,17.05
2022-10-21T14:42:23.846Z,12.48
2022-10-21T14:44:54.297Z,84.32
2022-10-21T14:47:27.099Z,14.13
2022-10-21T14:49:59.944Z,10.75
2022-10-21T14:52:46.920Z,11.75
2022-10-21T14:55:28.913Z,9.85
2022-10-21T15:01:03.227Z,10.43
2022-10-21T15:03:52.438Z,8.90
2022-10-21T15:06:36.414Z,8.98
2022-10-21T15:09:23.485Z,9.13
2022-10-21T15:11:50.352Z,9.93
2022-10-21T15:14:21.674Z,9.05
2022-10-21T15:17:02.381Z,9.85
2022-10-21T15:19:50.652Z,7.93
2022-10-21T15:22:24.067Z,8.95
2022-10-21T15:24:52.255Z,8.68
2022-10-21T15:27:42.583Z,8.55
2022-10-21T15:30:16.895Z,8.60
2022-10-21T15:32:43.511Z,8.93
2022-10-21T15:35:15.832Z,8.13
2022-10-21T15:37:43.086Z,6.93
2022-10-21T15:40:11.601Z,6.63
2022-10-21T15:42:38.591Z,6.30
2022-10-21T15:45:05.677Z,7.55
2022-10-21T15:47:32.606Z,5.55
2022-10-21T15:49:59.260Z,9.85
2022-10-21T15:52:30.527Z,6.63
2022-10-21T15:54:57.365Z,6.35
2022-10-21T15:57:24.451Z,5.13
2022-10-21T15:59:51.025Z,7.28
2022-10-21T16:02:18.056Z,7.22
2022-10-21T16:04:45.524Z,8.93
2022-10-21T16:07:20.063Z,8.63
2022-10-21T16:09:47.206Z,8.38
2022-10-21T16:12:15.089Z,8.05
2022-10-21T16:14:41.767Z,7.63
2022-10-21T16:17:11.393Z,7.20
2022-10-21T16:19:38.031Z,7.78
2022-10-21T16:22:12.919Z,8.30
2022-10-21T16:24:39.475Z,7.65
2022-10-21T16:27:11.323Z,7.15
2022-10-21T16:29:37.961Z,11.80
2022-10-21T16:32:04.747Z,8.02
2022-10-21T16:34:31.301Z,8.90
2022-10-21T16:36:59.566Z,8.40
2022-10-21T16:39:26.235Z,6.97
2022-10-21T16:41:53.129Z,7.70
2022-10-21T16:44:19.786Z,8.05
2022-10-21T16:46:51.654Z,7.85
2022-10-21T16:49:24.549Z,7.35
2022-10-21T16:51:52.825Z,7.88
2022-10-21T16:54:20.715Z,6.10
2022-10-21T16:56:47.613Z,8.95
2022-10-21T16:59:14.322Z,8.90
2022-10-21T17:01:41.046Z,9.10
2022-10-21T17:04:08.126Z,8.70
2022-10-21T17:06:34.700Z,9.60
2022-10-21T17:09:01.351Z,8.80
2022-10-21T17:11:33.018Z,11.00
2022-10-21T17:14:00.675Z,11.23
2022-10-21T17:16:27.367Z,9.88
2022-10-21T17:18:53.947Z,10.65
2022-10-21T17:21:27.666Z,10.73
2022-10-21T17:23:55.964Z,10.60
2022-10-21T17:26:22.998Z,11.18
2022-10-21T17:28:50.423Z,11.05
2022-10-21T17:31:19.362Z,11.95
2022-10-21T17:33:47.086Z,13.75
2022-10-21T17:36:15.034Z,10.00
2022-10-21T17:38:42.271Z,11.18
2022-10-21T17:41:10.409Z,14.07
2022-10-21T17:43:37.369Z,12.52
2022-10-21T17:46:04.769Z,9.10
2022-10-21T17:48:32.044Z,10.35
2022-10-21T17:51:01.556Z,11.07
2022-10-21T17:53:29.518Z,11.13
2022-10-21T17:56:01.787Z,12.57
2022-10-21T17:58:29.161Z,10.93
2022-10-21T18:00:56.665Z,13.13
2022-10-21T18:03:24.841Z,11.18
2022-10-21T18:05:51.664Z,12.90
2022-10-21T18:08:18.270Z,12.85
2022-10-21T18:10:55.550Z,11.80
2022-10-21T18:13:23.203Z,10.95
2022-10-21T18:15:50.382Z,11.98
2022-10-21T18:18:17.983Z,11.95
2022-10-21T18:20:45.192Z,11.00
2022-10-21T18:23:12.586Z,10.98
2022-10-21T18:25:40.394Z,10.18
2022-10-21T18:28:07.524Z,11.65
2022-10-21T18:30:34.648Z,11.70
2022-10-21T18:33:01.507Z,13.20
2022-10-21T18:35:29.457Z,13.30
2022-10-21T18:37:59.257Z,11.43
2022-10-21T18:40:25.899Z,11.88
2022-10-21T18:42:52.519Z,11.90
2022-10-21T18:45:19.178Z,10.25
2022-10-21T18:47:47.352Z,9.90
2022-10-21T18:50:14.563Z,13.40
2022-10-21T18:52:41.232Z,15.05
2022-10-21T18:55:08.443Z,16.20
2022-10-21T18:57:35.162Z,11.77
2022-10-21T19:00:01.831Z,13.10
2022-10-21T19:02:28.480Z,11.30
2022-10-21T19:04:57.156Z,13.57
2022-10-21T19:07:26.431Z,16.25
2022-10-21T19:09:57.028Z,13.60
2022-10-21T19:12:23.925Z,14.57
2022-10-21T19:14:50.843Z,15.02
2022-10-21T19:17:19.127Z,13.82
2022-10-21T19:19:45.856Z,13.75
2022-10-21T19:22:14.471Z,16.13
2022-10-21T19:24:41.176Z,15.98
2022-10-21T19:27:07.859Z,15.75
2022-10-21T19:29:34.445Z,17.45
2022-10-21T19:32:01.300Z,16.65
2022-10-21T19:34:28.061Z,18.02
2022-10-21T19:36:55.019Z,15.40
2022-10-21T19:39:21.650Z,16.75
2022-10-21T19:41:48.340Z,18.10
2022-10-21T19:44:15.238Z,16.98
2022-10-21T19:46:42.505Z,14.77
2022-10-21T19:49:11.065Z,12.25
2022-10-21T19:51:37.859Z,14.63
2022-10-21T19:54:06.501Z,15.30
2022-10-21T19:56:35.042Z,14.43
2022-10-21T19:59:02.469Z,14.73
2022-10-21T20:01:30.023Z,18.15
2022-10-21T20:03:56.881Z,15.23
2022-10-21T20:06:26.315Z,17.70
2022-10-21T20:09:01.618Z,14.77
2022-10-21T20:11:29.524Z,16.65
2022-10-21T20:13:56.337Z,13.80
2022-10-21T20:16:28.912Z,16.40
2022-10-21T20:18:56.769Z,16.67
2022-10-21T20:21:24.795Z,16.45
2022-10-21T20:23:51.975Z,15.73
2022-10-21T20:26:19.181Z,15.93
2022-10-21T20:28:45.946Z,17.27
2022-10-21T20:31:14.614Z,14.45
2022-10-21T20:33:46.804Z,14.05
2022-10-21T20:38:42.283Z,16.38
2022-10-21T20:41:12.683Z,14.70
2022-10-21T20:43:41.189Z,14.73
2022-10-21T20:46:10.707Z,14.23
2022-10-21T20:48:41.154Z,17.70
2022-10-21T20:51:14.829Z,17.83
2022-10-21T20:53:50.581Z,15.75
2022-10-21T20:56:17.816Z,14.88
2022-10-21T20:58:44.819Z,18.02
2022-10-21T21:01:20.160Z,15.80
2022-10-21T21:03:50.873Z,16.42
2022-10-21T21:06:17.934Z,17.88
2022-10-21T21:08:49.223Z,17.88
2022-10-21T21:11:25.420Z,20.42
2022-10-21T21:13:52.204Z,18.30
2022-10-21T21:16:21.125Z,16.55
2022-10-21T21:18:52.346Z,19.13
2022-10-21T21:21:20.673Z,17.05
2022-10-21T21:23:47.472Z,13.98
2022-10-21T21:26:31.503Z,16.65
2022-10-21T21:28:58.513Z,18.63
2022-10-21T21:31:27.450Z,16.35
2022-10-21T21:33:55.211Z,15.82
2022-10-21T21:36:21.922Z,15.75
2022-10-21T21:38:48.771Z,18.23
2022-10-21T21:41:16.749Z,19.38
2022-10-21T21:43:48.309Z,17.98
2022-10-21T21:46:22.633Z,17.98
2022-10-21T21:49:05.231Z,16.60
2022-10-21T21:51:34.128Z,13.75
2022-10-21T21:54:00.863Z,13.15
2022-10-21T21:56:28.151Z,14.93
2022-10-21T21:58:57.554Z,19.65
2022-10-21T22:01:27.035Z,18.13
2022-10-21T22:03:54.887Z,16.77
2022-10-21T22:08:51.317Z,19.00
2022-10-21T22:11:21.899Z,17.08
2022-10-21T22:13:49.015Z,20.80
2022-10-21T22:16:16.226Z,21.73
2022-10-21T22:18:43.844Z,21.88
2022-10-21T22:21:16.570Z,20.48
2022-10-21T22:23:43.912Z,22.70
2022-10-21T22:26:12.584Z,21.25
2022-10-21T22:28:39.534Z,21.25
2022-10-21T22:31:08.904Z,21.45
2022-10-21T22:33:36.510Z,17.63
2022-10-21T22:36:03.762Z,17.58
2022-10-21T22:38:30.787Z,17.17
2022-10-21T22:40:59.861Z,17.48
2022-10-21T22:43:27.102Z,17.67
2022-10-21T22:46:01.194Z,18.15
2022-10-21T22:48:41.153Z,16.83
2022-10-21T22:51:07.803Z,24.02
2022-10-21T22:53:36.671Z,19.98
2022-10-21T22:56:03.656Z,23.73
2022-10-21T22:58:30.639Z,19.85
2022-10-21T23:00:57.279Z,16.17
2022-10-21T23:03:24.358Z,20.58
2022-10-21T23:05:51.283Z,20.10
2022-10-21T23:08:18.655Z,19.77
2022-10-21T23:10:48.711Z,19.50
2022-10-21T23:13:15.327Z,19.88
2022-10-21T23:15:41.893Z,18.48
2022-10-21T23:18:08.597Z,20.60
2022-10-21T23:20:35.420Z,23.13
2022-10-21T23:23:02.085Z,24.02
2022-10-21T23:25:28.817Z,23.80
2022-10-21T23:27:55.575Z,23.17
2022-10-21T23:30:22.342Z,21.00
2022-10-21T23:32:49.014Z,26.17
2022-10-21T23:35:16.113Z,23.17
2022-10-21T23:37:43.518Z,31.15
2022-10-21T23:40:11.494Z,31.65
2022-10-21T23:42:41.960Z,30.55
2022-10-21T23:45:11.074Z,31.05
2022-10-21T23:47:39.190Z,24.15
2022-10-21T23:50:09.011Z,30.15
2022-10-21T23:52:36.540Z,28.20
2022-10-21T23:55:04.820Z,31.75
2022-10-21T23:57:31.562Z,28.63
2022-10-21T23:59:58.428Z,35.58
